sensor_id;sensor_type;location;lat;lon;timestamp;P1;durP1;ratioP1;P2;durP2;ratioP2
46767;SDS011;32529;48.978;18.072;2022-08-21T00:02:25;32.72;;;14.75;;
46767;SDS011;32529;48.978;18.072;2022-08-21T00:04:51;26.30;;;15.43;;
46767;SDS011;32529;48.978;18.072;2022-08-21T00:07:17;25.65;;;14.95;;
46767;SDS011;32529;48.978;18.072;2022-08-21T00:09:43;22.90;;;14.30;;
46767;SDS011;32529;48.978;18.072;2022-08-21T00:12:09;28.77;;;14.95;;
46767;SDS011;32529;48.978;18.072;2022-08-21T00:14:34;19.45;;;12.30;;
46767;SDS011;32529;48.978;18.072;2022-08-21T00:17:01;26.75;;;14.32;;
46767;SDS011;32529;48.978;18.072;2022-08-21T00:19:27;25.15;;;12.73;;
46767;SDS011;32529;48.978;18.072;2022-08-21T00:21:53;30.13;;;13.63;;
46767;SDS011;32529;48.978;18.072;2022-08-21T00:24:19;20.60;;;12.57;;
46767;SDS011;32529;48.978;18.072;2022-08-21T00:26:45;25.23;;;11.88;;
46767;SDS011;32529;48.978;18.072;2022-08-21T00:29:11;23.98;;;13.32;;
46767;SDS011;32529;48.978;18.072;2022-08-21T00:31:37;22.65;;;11.98;;
46767;SDS011;32529;48.978;18.072;2022-08-21T00:34:02;27.92;;;13.23;;
46767;SDS011;32529;48.978;18.072;2022-08-21T00:36:28;24.73;;;11.50;;
46767;SDS011;32529;48.978;18.072;2022-08-21T00:38:53;23.38;;;12.27;;
46767;SDS011;32529;48.978;18.072;2022-08-21T00:41:19;31.58;;;15.07;;
46767;SDS011;32529;48.978;18.072;2022-08-21T00:43:44;35.25;;;16.65;;
46767;SDS011;32529;48.978;18.072;2022-08-21T00:46:10;34.42;;;14.73;;
46767;SDS011;32529;48.978;18.072;2022-08-21T00:48:35;21.58;;;12.68;;
46767;SDS011;32529;48.978;18.072;2022-08-21T00:51:02;27.65;;;12.40;;
46767;SDS011;32529;48.978;18.072;2022-08-21T00:53:31;26.40;;;15.52;;
46767;SDS011;32529;48.978;18.072;2022-08-21T00:55:57;24.92;;;12.63;;
46767;SDS011;32529;48.978;18.072;2022-08-21T00:58:23;27.73;;;15.07;;
46767;SDS011;32529;48.978;18.072;2022-08-21T01:00:50;23.83;;;12.05;;
46767;SDS011;32529;48.978;18.072;2022-08-21T01:03:18;32.45;;;13.82;;
46767;SDS011;32529;48.978;18.072;2022-08-21T01:05:45;26.23;;;13.93;;
46767;SDS011;32529;48.978;18.072;2022-08-21T01:08:12;26.80;;;15.90;;
46767;SDS011;32529;48.978;18.072;2022-08-21T01:10:38;28.35;;;13.50;;
46767;SDS011;32529;48.978;18.072;2022-08-21T01:13:05;21.00;;;12.18;;
46767;SDS011;32529;48.978;18.072;2022-08-21T01:15:34;26.33;;;14.25;;
46767;SDS011;32529;48.978;18.072;2022-08-21T01:18:03;23.13;;;14.93;;
46767;SDS011;32529;48.978;18.072;2022-08-21T01:20:29;30.40;;;17.88;;
46767;SDS011;32529;48.978;18.072;2022-08-21T01:22:54;30.33;;;17.90;;
46767;SDS011;32529;48.978;18.072;2022-08-21T01:25:20;28.73;;;17.98;;
46767;SDS011;32529;48.978;18.072;2022-08-21T01:27:45;31.95;;;18.83;;
46767;SDS011;32529;48.978;18.072;2022-08-21T01:30:13;23.58;;;15.18;;
46767;SDS011;32529;48.978;18.072;2022-08-21T01:32:41;22.13;;;13.25;;
46767;SDS011;32529;48.978;18.072;2022-08-21T01:35:07;33.65;;;17.13;;
46767;SDS011;32529;48.978;18.072;2022-08-21T01:37:33;25.08;;;16.02;;
46767;SDS011;32529;48.978;18.072;2022-08-21T01:39:59;44.75;;;22.55;;
46767;SDS011;32529;48.978;18.072;2022-08-21T01:42:24;40.97;;;22.15;;
46767;SDS011;32529;48.978;18.072;2022-08-21T01:44:49;30.45;;;17.63;;
46767;SDS011;32529;48.978;18.072;2022-08-21T01:47:15;32.03;;;15.85;;
46767;SDS011;32529;48.978;18.072;2022-08-21T01:49:41;21.00;;;14.73;;
46767;SDS011;32529;48.978;18.072;2022-08-21T01:52:08;22.45;;;12.40;;
46767;SDS011;32529;48.978;18.072;2022-08-21T01:54:33;27.42;;;16.98;;
46767;SDS011;32529;48.978;18.072;2022-08-21T01:56:59;23.58;;;14.35;;
46767;SDS011;32529;48.978;18.072;2022-08-21T01:59:25;20.95;;;13.30;;
46767;SDS011;32529;48.978;18.072;2022-08-21T02:01:51;26.27;;;15.30;;
46767;SDS011;32529;48.978;18.072;2022-08-21T02:04:19;24.08;;;14.30;;
46767;SDS011;32529;48.978;18.072;2022-08-21T02:06:44;29.20;;;17.88;;
46767;SDS011;32529;48.978;18.072;2022-08-21T02:09:10;27.95;;;17.25;;
46767;SDS011;32529;48.978;18.072;2022-08-21T02:11:36;26.55;;;16.45;;
46767;SDS011;32529;48.978;18.072;2022-08-21T02:14:05;27.90;;;15.48;;
46767;SDS011;32529;48.978;18.072;2022-08-21T02:16:31;20.15;;;13.52;;
46767;SDS011;32529;48.978;18.072;2022-08-21T02:18:56;30.73;;;16.20;;
46767;SDS011;32529;48.978;18.072;2022-08-21T02:21:21;27.40;;;17.80;;
46767;SDS011;32529;48.978;18.072;2022-08-21T02:23:47;20.02;;;13.32;;
46767;SDS011;32529;48.978;18.072;2022-08-21T02:26:12;20.58;;;14.77;;
46767;SDS011;32529;48.978;18.072;2022-08-21T02:28:38;30.52;;;17.05;;
46767;SDS011;32529;48.978;18.072;2022-08-21T02:31:03;22.48;;;13.27;;
46767;SDS011;32529;48.978;18.072;2022-08-21T02:33:29;23.73;;;14.95;;
46767;SDS011;32529;48.978;18.072;2022-08-21T02:35:55;27.80;;;14.77;;
46767;SDS011;32529;48.978;18.072;2022-08-21T02:38:25;31.23;;;16.95;;
46767;SDS011;32529;48.978;18.072;2022-08-21T02:40:52;29.98;;;17.95;;
46767;SDS011;32529;48.978;18.072;2022-08-21T02:43:19;28.88;;;18.27;;
46767;SDS011;32529;48.978;18.072;2022-08-21T02:45:45;28.27;;;20.15;;
46767;SDS011;32529;48.978;18.072;2022-08-21T02:48:12;37.42;;;18.98;;
46767;SDS011;32529;48.978;18.072;2022-08-21T02:50:41;26.73;;;17.80;;
46767;SDS011;32529;48.978;18.072;2022-08-21T02:53:09;28.50;;;18.50;;
46767;SDS011;32529;48.978;18.072;2022-08-21T02:55:35;24.10;;;16.33;;
46767;SDS011;32529;48.978;18.072;2022-08-21T02:58:02;39.00;;;22.08;;
46767;SDS011;32529;48.978;18.072;2022-08-21T03:00:31;35.78;;;21.13;;
46767;SDS011;32529;48.978;18.072;2022-08-21T03:02:57;27.38;;;16.77;;
46767;SDS011;32529;48.978;18.072;2022-08-21T03:05:24;30.23;;;16.95;;
46767;SDS011;32529;48.978;18.072;2022-08-21T03:07:50;30.23;;;18.17;;
46767;SDS011;32529;48.978;18.072;2022-08-21T03:10:17;32.33;;;20.52;;
46767;SDS011;32529;48.978;18.072;2022-08-21T03:12:44;35.63;;;20.45;;
46767;SDS011;32529;48.978;18.072;2022-08-21T03:15:11;28.13;;;17.20;;
46767;SDS011;32529;48.978;18.072;2022-08-21T03:17:38;26.90;;;17.35;;
46767;SDS011;32529;48.978;18.072;2022-08-21T03:20:04;27.92;;;17.73;;
46767;SDS011;32529;48.978;18.072;2022-08-21T03:22:30;35.78;;;22.40;;
46767;SDS011;32529;48.978;18.072;2022-08-21T03:24:57;26.77;;;19.33;;
46767;SDS011;32529;48.978;18.072;2022-08-21T03:27:23;32.40;;;17.75;;
46767;SDS011;32529;48.978;18.072;2022-08-21T03:29:49;43.08;;;22.17;;
46767;SDS011;32529;48.978;18.072;2022-08-21T03:32:14;36.97;;;18.65;;
46767;SDS011;32529;48.978;18.072;2022-08-21T03:34:39;26.08;;;18.88;;
46767;SDS011;32529;48.978;18.072;2022-08-21T03:37:06;28.65;;;20.08;;
46767;SDS011;32529;48.978;18.072;2022-08-21T03:39:32;28.67;;;20.33;;
46767;SDS011;32529;48.978;18.072;2022-08-21T03:41:58;31.20;;;21.67;;
46767;SDS011;32529;48.978;18.072;2022-08-21T03:44:24;27.92;;;19.45;;
46767;SDS011;32529;48.978;18.072;2022-08-21T03:46:53;22.35;;;17.38;;
46767;SDS011;32529;48.978;18.072;2022-08-21T03:49:18;18.35;;;14.48;;
46767;SDS011;32529;48.978;18.072;2022-08-21T03:51:43;19.60;;;14.27;;
46767;SDS011;32529;48.978;18.072;2022-08-21T03:54:09;29.30;;;18.95;;
46767;SDS011;32529;48.978;18.072;2022-08-21T03:56:34;26.40;;;15.30;;
46767;SDS011;32529;48.978;18.072;2022-08-21T03:58:59;22.58;;;15.30;;
46767;SDS011;32529;48.978;18.072;2022-08-21T04:01:25;17.15;;;12.85;;
46767;SDS011;32529;48.978;18.072;2022-08-21T04:03:50;16.75;;;14.55;;
46767;SDS011;32529;48.978;18.072;2022-08-21T04:06:16;16.27;;;12.85;;
46767;SDS011;32529;48.978;18.072;2022-08-21T04:08:41;16.40;;;11.63;;
46767;SDS011;32529;48.978;18.072;2022-08-21T04:11:08;13.73;;;11.02;;
46767;SDS011;32529;48.978;18.072;2022-08-21T04:13:35;8.75;;;7.88;;
46767;SDS011;32529;48.978;18.072;2022-08-21T04:16:00;10.55;;;8.63;;
46767;SDS011;32529;48.978;18.072;2022-08-21T04:18:26;8.13;;;7.25;;
46767;SDS011;32529;48.978;18.072;2022-08-21T04:20:51;10.27;;;6.95;;
46767;SDS011;32529;48.978;18.072;2022-08-21T04:23:17;7.47;;;6.50;;
46767;SDS011;32529;48.978;18.072;2022-08-21T04:25:43;7.25;;;4.72;;
46767;SDS011;32529;48.978;18.072;2022-08-21T04:28:09;5.75;;;4.75;;
46767;SDS011;32529;48.978;18.072;2022-08-21T04:30:34;4.07;;;3.33;;
46767;SDS011;32529;48.978;18.072;2022-08-21T04:33:00;4.30;;;3.50;;
46767;SDS011;32529;48.978;18.072;2022-08-21T04:35:26;3.03;;;2.83;;
46767;SDS011;32529;48.978;18.072;2022-08-21T04:37:52;3.40;;;3.10;;
46767;SDS011;32529;48.978;18.072;2022-08-21T04:40:18;3.28;;;2.60;;
46767;SDS011;32529;48.978;18.072;2022-08-21T04:42:45;3.70;;;2.20;;
46767;SDS011;32529;48.978;18.072;2022-08-21T04:47:45;7.65;;;2.83;;
46767;SDS011;32529;48.978;18.072;2022-08-21T04:50:12;4.25;;;2.10;;
46767;SDS011;32529;48.978;18.072;2022-08-21T04:52:37;2.17;;;1.98;;
46767;SDS011;32529;48.978;18.072;2022-08-21T04:55:02;3.75;;;1.98;;
46767;SDS011;32529;48.978;18.072;2022-08-21T04:57:28;3.97;;;2.13;;
46767;SDS011;32529;48.978;18.072;2022-08-21T04:59:53;3.70;;;1.63;;
46767;SDS011;32529;48.978;18.072;2022-08-21T05:02:19;1.60;;;1.50;;
46767;SDS011;32529;48.978;18.072;2022-08-21T05:04:50;1.30;;;1.20;;
46767;SDS011;32529;48.978;18.072;2022-08-21T05:07:18;1.20;;;1.20;;
46767;SDS011;32529;48.978;18.072;2022-08-21T05:09:45;1.00;;;1.00;;
46767;SDS011;32529;48.978;18.072;2022-08-21T05:12:11;2.35;;;0.88;;
46767;SDS011;32529;48.978;18.072;2022-08-21T05:14:37;0.75;;;0.73;;
46767;SDS011;32529;48.978;18.072;2022-08-21T05:17:02;2.28;;;0.52;;
46767;SDS011;32529;48.978;18.072;2022-08-21T05:19:27;2.65;;;0.40;;
46767;SDS011;32529;48.978;18.072;2022-08-21T05:21:53;0.90;;;0.30;;
46767;SDS011;32529;48.978;18.072;2022-08-21T05:24:18;0.55;;;0.32;;
46767;SDS011;32529;48.978;18.072;2022-08-21T05:26:44;0.30;;;0.30;;
46767;SDS011;32529;48.978;18.072;2022-08-21T05:29:09;3.20;;;0.50;;
46767;SDS011;32529;48.978;18.072;2022-08-21T05:31:36;2.88;;;0.70;;
46767;SDS011;32529;48.978;18.072;2022-08-21T05:34:01;0.30;;;0.30;;
46767;SDS011;32529;48.978;18.072;2022-08-21T05:36:27;2.05;;;0.60;;
46767;SDS011;32529;48.978;18.072;2022-08-21T05:38:52;0.60;;;0.60;;
46767;SDS011;32529;48.978;18.072;2022-08-21T05:41:17;0.50;;;0.50;;
46767;SDS011;32529;48.978;18.072;2022-08-21T05:43:43;0.52;;;0.28;;
46767;SDS011;32529;48.978;18.072;2022-08-21T05:46:08;0.20;;;0.20;;
46767;SDS011;32529;48.978;18.072;2022-08-21T05:48:34;0.20;;;0.20;;
46767;SDS011;32529;48.978;18.072;2022-08-21T05:51:04;0.95;;;0.52;;
46767;SDS011;32529;48.978;18.072;2022-08-21T05:53:31;0.30;;;0.30;;
46767;SDS011;32529;48.978;18.072;2022-08-21T05:55:57;1.67;;;0.50;;
46767;SDS011;32529;48.978;18.072;2022-08-21T05:58:22;2.28;;;0.30;;
46767;SDS011;32529;48.978;18.072;2022-08-21T06:00:48;0.80;;;0.30;;
46767;SDS011;32529;48.978;18.072;2022-08-21T06:03:22;0.52;;;0.52;;
46767;SDS011;32529;48.978;18.072;2022-08-21T06:05:49;0.65;;;0.28;;
46767;SDS011;32529;48.978;18.072;2022-08-21T06:08:15;1.55;;;0.45;;
46767;SDS011;32529;48.978;18.072;2022-08-21T06:10:41;0.40;;;0.32;;
46767;SDS011;32529;48.978;18.072;2022-08-21T06:13:07;0.63;;;0.40;;
46767;SDS011;32529;48.978;18.072;2022-08-21T06:15:33;1.00;;;0.50;;
46767;SDS011;32529;48.978;18.072;2022-08-21T06:17:59;0.63;;;0.63;;
46767;SDS011;32529;48.978;18.072;2022-08-21T06:20:24;0.52;;;0.52;;
46767;SDS011;32529;48.978;18.072;2022-08-21T06:22:50;0.45;;;0.40;;
46767;SDS011;32529;48.978;18.072;2022-08-21T06:25:16;0.65;;;0.30;;
46767;SDS011;32529;48.978;18.072;2022-08-21T06:27:41;1.65;;;0.45;;
46767;SDS011;32529;48.978;18.072;2022-08-21T06:30:07;0.22;;;0.20;;
46767;SDS011;32529;48.978;18.072;2022-08-21T06:32:32;0.57;;;0.40;;
46767;SDS011;32529;48.978;18.072;2022-08-21T06:34:58;1.05;;;0.35;;
46767;SDS011;32529;48.978;18.072;2022-08-21T06:37:23;2.60;;;0.30;;
46767;SDS011;32529;48.978;18.072;2022-08-21T06:39:48;0.63;;;0.40;;
46767;SDS011;32529;48.978;18.072;2022-08-21T06:42:15;3.03;;;0.73;;
46767;SDS011;32529;48.978;18.072;2022-08-21T06:44:41;1.40;;;1.30;;
46767;SDS011;32529;48.978;18.072;2022-08-21T06:47:07;2.15;;;0.60;;
46767;SDS011;32529;48.978;18.072;2022-08-21T06:49:33;4.97;;;0.77;;
46767;SDS011;32529;48.978;18.072;2022-08-21T06:51:58;0.55;;;0.45;;
46767;SDS011;32529;48.978;18.072;2022-08-21T06:54:24;0.50;;;0.47;;
46767;SDS011;32529;48.978;18.072;2022-08-21T06:56:49;1.00;;;0.77;;
46767;SDS011;32529;48.978;18.072;2022-08-21T06:59:14;1.17;;;0.65;;
46767;SDS011;32529;48.978;18.072;2022-08-21T07:01:40;0.55;;;0.55;;
46767;SDS011;32529;48.978;18.072;2022-08-21T07:04:06;0.80;;;0.80;;
46767;SDS011;32529;48.978;18.072;2022-08-21T07:06:31;0.68;;;0.68;;
46767;SDS011;32529;48.978;18.072;2022-08-21T07:08:56;0.77;;;0.70;;
46767;SDS011;32529;48.978;18.072;2022-08-21T07:11:22;0.98;;;0.98;;
46767;SDS011;32529;48.978;18.072;2022-08-21T07:13:49;0.57;;;0.57;;
46767;SDS011;32529;48.978;18.072;2022-08-21T07:16:16;0.80;;;0.80;;
46767;SDS011;32529;48.978;18.072;2022-08-21T07:18:42;1.75;;;1.48;;
46767;SDS011;32529;48.978;18.072;2022-08-21T07:21:08;2.30;;;1.23;;
46767;SDS011;32529;48.978;18.072;2022-08-21T07:23:34;8.40;;;1.70;;
46767;SDS011;32529;48.978;18.072;2022-08-21T07:26:02;3.08;;;0.90;;
46767;SDS011;32529;48.978;18.072;2022-08-21T07:28:28;1.55;;;1.20;;
46767;SDS011;32529;48.978;18.072;2022-08-21T07:30:54;1.10;;;1.00;;
46767;SDS011;32529;48.978;18.072;2022-08-21T07:33:21;2.63;;;0.90;;
46767;SDS011;32529;48.978;18.072;2022-08-21T07:35:47;1.08;;;1.02;;
46767;SDS011;32529;48.978;18.072;2022-08-21T07:38:12;4.32;;;1.58;;
46767;SDS011;32529;48.978;18.072;2022-08-21T07:40:38;1.08;;;1.02;;
46767;SDS011;32529;48.978;18.072;2022-08-21T07:43:03;1.85;;;1.00;;
46767;SDS011;32529;48.978;18.072;2022-08-21T07:45:29;1.30;;;1.20;;
46767;SDS011;32529;48.978;18.072;2022-08-21T07:47:54;1.85;;;1.10;;
46767;SDS011;32529;48.978;18.072;2022-08-21T07:50:20;1.50;;;1.00;;
46767;SDS011;32529;48.978;18.072;2022-08-21T07:52:45;2.25;;;1.38;;
46767;SDS011;32529;48.978;18.072;2022-08-21T07:55:11;2.95;;;1.60;;
46767;SDS011;32529;48.978;18.072;2022-08-21T07:57:39;2.72;;;1.52;;
46767;SDS011;32529;48.978;18.072;2022-08-21T08:00:05;1.70;;;1.50;;
46767;SDS011;32529;48.978;18.072;2022-08-21T08:02:33;2.03;;;1.70;;
46767;SDS011;32529;48.978;18.072;2022-08-21T08:04:59;2.35;;;2.20;;
46767;SDS011;32529;48.978;18.072;2022-08-21T08:07:25;1.33;;;1.33;;
46767;SDS011;32529;48.978;18.072;2022-08-21T08:09:51;2.42;;;1.65;;
46767;SDS011;32529;48.978;18.072;2022-08-21T08:12:16;2.40;;;2.22;;
46767;SDS011;32529;48.978;18.072;2022-08-21T08:14:42;4.57;;;2.22;;
46767;SDS011;32529;48.978;18.072;2022-08-21T08:17:07;2.65;;;2.45;;
46767;SDS011;32529;48.978;18.072;2022-08-21T08:19:33;4.30;;;1.77;;
46767;SDS011;32529;48.978;18.072;2022-08-21T08:21:58;2.00;;;1.90;;
46767;SDS011;32529;48.978;18.072;2022-08-21T08:24:23;3.72;;;1.90;;
46767;SDS011;32529;48.978;18.072;2022-08-21T08:26:49;3.00;;;1.50;;
46767;SDS011;32529;48.978;18.072;2022-08-21T08:29:14;1.77;;;1.67;;
46767;SDS011;32529;48.978;18.072;2022-08-21T08:31:40;1.70;;;1.60;;
46767;SDS011;32529;48.978;18.072;2022-08-21T08:34:05;1.92;;;1.83;;
46767;SDS011;32529;48.978;18.072;2022-08-21T08:36:34;2.22;;;1.80;;
46767;SDS011;32529;48.978;18.072;2022-08-21T08:39:02;3.28;;;2.05;;
46767;SDS011;32529;48.978;18.072;2022-08-21T08:41:28;4.75;;;1.92;;
46767;SDS011;32529;48.978;18.072;2022-08-21T08:43:55;3.30;;;2.22;;
46767;SDS011;32529;48.978;18.072;2022-08-21T08:46:47;1.98;;;1.88;;
46767;SDS011;32529;48.978;18.072;2022-08-21T08:49:20;2.25;;;2.05;;
46767;SDS011;32529;48.978;18.072;2022-08-21T08:51:54;2.42;;;2.30;;
46767;SDS011;32529;48.978;18.072;2022-08-21T08:57:33;3.33;;;2.60;;
46767;SDS011;32529;48.978;18.072;2022-08-21T09:00:03;2.08;;;1.95;;
46767;SDS011;32529;48.978;18.072;2022-08-21T09:02:31;3.05;;;1.80;;
46767;SDS011;32529;48.978;18.072;2022-08-21T09:04:58;2.97;;;2.17;;
46767;SDS011;32529;48.978;18.072;2022-08-21T09:12:48;2.33;;;2.10;;
46767;SDS011;32529;48.978;18.072;2022-08-21T09:20:29;4.75;;;3.10;;
46767;SDS011;32529;48.978;18.072;2022-08-21T09:23:08;4.43;;;3.00;;
46767;SDS011;32529;48.978;18.072;2022-08-21T09:26:08;4.35;;;2.53;;
46767;SDS011;32529;48.978;18.072;2022-08-21T09:28:39;4.90;;;2.88;;
46767;SDS011;32529;48.978;18.072;2022-08-21T09:31:07;4.80;;;3.15;;
46767;SDS011;32529;48.978;18.072;2022-08-21T09:33:44;5.97;;;3.80;;
46767;SDS011;32529;48.978;18.072;2022-08-21T09:36:09;4.03;;;3.08;;
46767;SDS011;32529;48.978;18.072;2022-08-21T09:38:36;4.07;;;3.17;;
46767;SDS011;32529;48.978;18.072;2022-08-21T09:41:06;6.35;;;3.58;;
46767;SDS011;32529;48.978;18.072;2022-08-21T09:43:33;4.30;;;3.40;;
46767;SDS011;32529;48.978;18.072;2022-08-21T09:48:28;6.78;;;3.55;;
46767;SDS011;32529;48.978;18.072;2022-08-21T09:51:04;5.53;;;3.10;;
46767;SDS011;32529;48.978;18.072;2022-08-21T09:53:31;4.82;;;3.50;;
46767;SDS011;32529;48.978;18.072;2022-08-21T09:55:57;3.03;;;2.72;;
46767;SDS011;32529;48.978;18.072;2022-08-21T09:58:45;3.15;;;2.85;;
46767;SDS011;32529;48.978;18.072;2022-08-21T10:01:17;3.83;;;3.30;;
46767;SDS011;32529;48.978;18.072;2022-08-21T10:03:44;4.05;;;3.15;;
46767;SDS011;32529;48.978;18.072;2022-08-21T10:06:10;2.83;;;2.63;;
46767;SDS011;32529;48.978;18.072;2022-08-21T10:08:47;3.13;;;2.53;;
46767;SDS011;32529;48.978;18.072;2022-08-21T10:11:13;6.70;;;3.15;;
46767;SDS011;32529;48.978;18.072;2022-08-21T10:33:05;2.50;;;2.30;;
46767;SDS011;32529;48.978;18.072;2022-08-21T10:55:19;3.70;;;2.45;;
46767;SDS011;32529;48.978;18.072;2022-08-21T11:00:28;3.05;;;2.60;;
46767;SDS011;32529;48.978;18.072;2022-08-21T11:02:58;5.97;;;2.45;;
46767;SDS011;32529;48.978;18.072;2022-08-21T11:05:33;2.58;;;2.20;;
46767;SDS011;32529;48.978;18.072;2022-08-21T11:08:09;2.08;;;1.95;;
46767;SDS011;32529;48.978;18.072;2022-08-21T11:10:39;2.55;;;2.33;;
46767;SDS011;32529;48.978;18.072;2022-08-21T11:15:55;4.38;;;1.70;;
46767;SDS011;32529;48.978;18.072;2022-08-21T11:18:31;2.33;;;1.70;;
46767;SDS011;32529;48.978;18.072;2022-08-21T11:21:01;1.98;;;1.50;;
46767;SDS011;32529;48.978;18.072;2022-08-21T11:23:57;2.50;;;1.90;;
46767;SDS011;32529;48.978;18.072;2022-08-21T11:29:21;1.65;;;1.55;;
46767;SDS011;32529;48.978;18.072;2022-08-21T11:32:00;2.53;;;1.58;;
46767;SDS011;32529;48.978;18.072;2022-08-21T11:34:40;1.40;;;1.25;;
46767;SDS011;32529;48.978;18.072;2022-08-21T11:40:24;4.88;;;1.60;;
46767;SDS011;32529;48.978;18.072;2022-08-21T11:42:56;1.45;;;1.35;;
46767;SDS011;32529;48.978;18.072;2022-08-21T11:50:54;2.70;;;1.65;;
46767;SDS011;32529;48.978;18.072;2022-08-21T11:53:23;2.42;;;0.80;;
46767;SDS011;32529;48.978;18.072;2022-08-21T11:58:39;1.52;;;0.90;;
46767;SDS011;32529;48.978;18.072;2022-08-21T12:01:08;0.95;;;0.90;;
46767;SDS011;32529;48.978;18.072;2022-08-21T12:03:37;1.95;;;0.90;;
46767;SDS011;32529;48.978;18.072;2022-08-21T12:06:11;2.33;;;0.70;;
46767;SDS011;32529;48.978;18.072;2022-08-21T12:08:40;0.85;;;0.60;;
46767;SDS011;32529;48.978;18.072;2022-08-21T12:13:52;1.60;;;0.90;;
46767;SDS011;32529;48.978;18.072;2022-08-21T12:16:30;0.75;;;0.75;;
46767;SDS011;32529;48.978;18.072;2022-08-21T12:19:10;0.80;;;0.57;;
46767;SDS011;32529;48.978;18.072;2022-08-21T12:21:50;0.63;;;0.60;;
46767;SDS011;32529;48.978;18.072;2022-08-21T12:24:19;0.98;;;0.82;;
46767;SDS011;32529;48.978;18.072;2022-08-21T12:29:47;0.40;;;0.40;;
46767;SDS011;32529;48.978;18.072;2022-08-21T12:34:46;8.98;;;2.92;;
46767;SDS011;32529;48.978;18.072;2022-08-21T12:37:18;2.90;;;1.13;;
46767;SDS011;32529;48.978;18.072;2022-08-21T12:40:10;5.72;;;2.90;;
46767;SDS011;32529;48.978;18.072;2022-08-21T12:42:41;0.40;;;0.40;;
46767;SDS011;32529;48.978;18.072;2022-08-21T12:45:22;0.38;;;0.38;;
46767;SDS011;32529;48.978;18.072;2022-08-21T12:56:09;2.55;;;0.52;;
46767;SDS011;32529;48.978;18.072;2022-08-21T12:58:39;0.88;;;0.40;;
46767;SDS011;32529;48.978;18.072;2022-08-21T13:03:49;9.98;;;9.07;;
46767;SDS011;32529;48.978;18.072;2022-08-21T13:06:16;3.28;;;3.08;;
46767;SDS011;32529;48.978;18.072;2022-08-21T13:08:43;1.67;;;0.93;;
46767;SDS011;32529;48.978;18.072;2022-08-21T13:11:08;1.95;;;1.40;;
46767;SDS011;32529;48.978;18.072;2022-08-21T13:13:34;27.55;;;13.40;;
46767;SDS011;32529;48.978;18.072;2022-08-21T13:16:04;10.23;;;6.38;;
46767;SDS011;32529;48.978;18.072;2022-08-21T13:18:32;14.93;;;9.05;;
46767;SDS011;32529;48.978;18.072;2022-08-21T13:21:06;25.70;;;14.85;;
46767;SDS011;32529;48.978;18.072;2022-08-21T13:23:41;5.03;;;2.67;;
46767;SDS011;32529;48.978;18.072;2022-08-21T13:26:20;4.82;;;2.03;;
46767;SDS011;32529;48.978;18.072;2022-08-21T13:28:46;1.52;;;1.42;;
46767;SDS011;32529;48.978;18.072;2022-08-21T13:31:15;1.77;;;1.67;;
46767;SDS011;32529;48.978;18.072;2022-08-21T13:33:43;3.50;;;1.80;;
46767;SDS011;32529;48.978;18.072;2022-08-21T13:36:10;1.85;;;1.02;;
46767;SDS011;32529;48.978;18.072;2022-08-21T13:38:40;0.77;;;0.57;;
46767;SDS011;32529;48.978;18.072;2022-08-21T13:43:35;2.70;;;2.50;;
46767;SDS011;32529;48.978;18.072;2022-08-21T13:46:02;1.90;;;1.25;;
46767;SDS011;32529;48.978;18.072;2022-08-21T13:48:33;3.30;;;1.05;;
46767;SDS011;32529;48.978;18.072;2022-08-21T13:50:59;0.70;;;0.70;;
46767;SDS011;32529;48.978;18.072;2022-08-21T13:56:06;0.90;;;0.85;;
46767;SDS011;32529;48.978;18.072;2022-08-21T13:58:43;0.95;;;0.95;;
46767;SDS011;32529;48.978;18.072;2022-08-21T14:04:24;2.05;;;1.95;;
46767;SDS011;32529;48.978;18.072;2022-08-21T14:06:50;1.75;;;0.73;;
46767;SDS011;32529;48.978;18.072;2022-08-21T14:11:50;1.95;;;1.85;;
46767;SDS011;32529;48.978;18.072;2022-08-21T14:14:20;2.90;;;2.80;;
46767;SDS011;32529;48.978;18.072;2022-08-21T14:17:06;2.63;;;1.30;;
46767;SDS011;32529;48.978;18.072;2022-08-21T14:19:38;0.70;;;0.70;;
46767;SDS011;32529;48.978;18.072;2022-08-21T14:25:12;1.52;;;1.42;;
46767;SDS011;32529;48.978;18.072;2022-08-21T14:27:57;1.40;;;0.60;;
46767;SDS011;32529;48.978;18.072;2022-08-21T14:30:29;5.72;;;4.60;;
46767;SDS011;32529;48.978;18.072;2022-08-21T14:32:56;1.42;;;1.00;;
46767;SDS011;32529;48.978;18.072;2022-08-21T14:35:22;1.13;;;0.63;;
46767;SDS011;32529;48.978;18.072;2022-08-21T14:37:48;3.13;;;1.48;;
46767;SDS011;32529;48.978;18.072;2022-08-21T14:40:17;3.38;;;1.08;;
46767;SDS011;32529;48.978;18.072;2022-08-21T14:42:43;1.13;;;1.13;;
46767;SDS011;32529;48.978;18.072;2022-08-21T14:45:19;2.10;;;2.00;;
46767;SDS011;32529;48.978;18.072;2022-08-21T14:47:50;4.97;;;1.10;;
46767;SDS011;32529;48.978;18.072;2022-08-21T14:50:16;0.50;;;0.50;;
46767;SDS011;32529;48.978;18.072;2022-08-21T14:52:41;3.08;;;0.73;;
46767;SDS011;32529;48.978;18.072;2022-08-21T14:55:08;1.30;;;0.80;;
46767;SDS011;32529;48.978;18.072;2022-08-21T14:57:38;0.95;;;0.77;;
46767;SDS011;32529;48.978;18.072;2022-08-21T15:00:05;0.85;;;0.43;;
46767;SDS011;32529;48.978;18.072;2022-08-21T15:02:32;0.80;;;0.80;;
46767;SDS011;32529;48.978;18.072;2022-08-21T15:04:58;0.63;;;0.63;;
46767;SDS011;32529;48.978;18.072;2022-08-21T15:07:23;1.65;;;0.68;;
46767;SDS011;32529;48.978;18.072;2022-08-21T15:09:49;0.82;;;0.80;;
46767;SDS011;32529;48.978;18.072;2022-08-21T15:12:14;0.50;;;0.50;;
46767;SDS011;32529;48.978;18.072;2022-08-21T15:14:40;3.05;;;0.98;;
46767;SDS011;32529;48.978;18.072;2022-08-21T15:17:07;0.60;;;0.50;;
46767;SDS011;32529;48.978;18.072;2022-08-21T15:19:34;1.73;;;1.63;;
46767;SDS011;32529;48.978;18.072;2022-08-21T15:21:59;1.13;;;1.00;;
46767;SDS011;32529;48.978;18.072;2022-08-21T15:24:25;2.90;;;0.60;;
46767;SDS011;32529;48.978;18.072;2022-08-21T15:26:51;2.25;;;0.90;;
46767;SDS011;32529;48.978;18.072;2022-08-21T15:29:17;0.52;;;0.52;;
46767;SDS011;32529;48.978;18.072;2022-08-21T15:31:56;1.17;;;0.60;;
46767;SDS011;32529;48.978;18.072;2022-08-21T15:34:24;1.60;;;1.50;;
46767;SDS011;32529;48.978;18.072;2022-08-21T15:36:52;2.20;;;1.90;;
46767;SDS011;32529;48.978;18.072;2022-08-21T15:39:17;73.43;;;62.63;;
46767;SDS011;32529;48.978;18.072;2022-08-21T15:41:43;151.20;;;134.90;;
46767;SDS011;32529;48.978;18.072;2022-08-21T15:44:09;185.55;;;166.23;;
46767;SDS011;32529;48.978;18.072;2022-08-21T15:46:36;294.08;;;265.20;;
46767;SDS011;32529;48.978;18.072;2022-08-21T15:49:02;36.30;;;32.80;;
46767;SDS011;32529;48.978;18.072;2022-08-21T15:51:27;4.75;;;4.43;;
46767;SDS011;32529;48.978;18.072;2022-08-21T15:53:53;2.80;;;2.15;;
46767;SDS011;32529;48.978;18.072;2022-08-21T15:58:51;4.03;;;1.25;;
46767;SDS011;32529;48.978;18.072;2022-08-21T16:01:19;1.83;;;1.73;;
46767;SDS011;32529;48.978;18.072;2022-08-21T16:03:46;1.38;;;1.30;;
46767;SDS011;32529;48.978;18.072;2022-08-21T16:06:13;2.17;;;0.80;;
46767;SDS011;32529;48.978;18.072;2022-08-21T16:08:39;1.50;;;0.93;;
46767;SDS011;32529;48.978;18.072;2022-08-21T16:11:04;3.08;;;2.80;;
46767;SDS011;32529;48.978;18.072;2022-08-21T16:13:32;1.35;;;1.08;;
46767;SDS011;32529;48.978;18.072;2022-08-21T16:16:04;0.70;;;0.70;;
46767;SDS011;32529;48.978;18.072;2022-08-21T16:18:30;3.90;;;1.40;;
46767;SDS011;32529;48.978;18.072;2022-08-21T16:20:55;5.80;;;1.25;;
46767;SDS011;32529;48.978;18.072;2022-08-21T16:23:21;1.35;;;0.85;;